South Bristol, Maine
Current Conditions -  °F | °C
As of 12:53 PM on Saturday 20 Dec 2014 (Local Time) from KIWI Reporting Station
Clear Clear  
Wind Chill: 28°   Ceiling: Unl
Heat Index: 33°   Visibility: 10mi
Dew Point: 20°   Wind: 6mph
Humidity: 59%   Direction: NA
Pressure: 30.3"   Gusts: NA
Location:  43.86°N, 69.56°W
Report Text: KIWI 201753Z AUTO VRB05KT 10SM CLR 01/M07 A3030 RMK AO2 SLP261 T00061067 10006 21056 58017
Loading
Personal Weather Stations






























Interactive Weather Map New forecast layout! Learn more

10-Day Weather Forecast

Advertisements
Track Severe Weather on mobile